Archival Weather

Tokyo Intl

Tokyo, Japan (RJTT)

Report from: Tuesday, September 19, 2023 7:00 AM JST
Current time: Wednesday, December 6, 2023 4:49 PM JST

Current weather – Weather history – Daily summaries
Weather forecast

Temperature29.0°C (84.2°F)
Heat index33.7°C (92.7°F)
Dew point24.0°C (75.2°F)
Winds 11 kts (5.7 m/s, 12.7 mph) South (190°)
Visibility6.2 mi. (10 km)
Clouds Few clouds 2,000 ft. (610 m)
Altimeter29.94 in.Hg (1014 mB)
Relative humidity75 %
Density altitude1,982 ft. (604 m)
Remarks No significant changes expected in the next two hours
Flight conditions Visual Meteorological Conditions
Raw dataRJTT 182200Z 19011KT 9999 FEW020 29/24 Q1014 NOSIG
An error has occurred. This application may no longer respond until reloaded. Reload 🗙